sensor_id;sensor_type;location;lat;lon;timestamp;pressure;altitude;pressure_sealevel;temperature;humidity
65276;BME280;51875;49.994;14.052;2023-03-03T00:01:00;98631.72;;;-1.92;100.00
65276;BME280;51875;49.994;14.052;2023-03-03T00:02:16;98636.13;;;-1.86;98.67
65276;BME280;51875;49.994;14.052;2023-03-03T00:03:31;98632.66;;;-1.88;97.12
65276;BME280;51875;49.994;14.052;2023-03-03T00:04:47;98640.25;;;-1.93;97.24
65276;BME280;51875;49.994;14.052;2023-03-03T00:06:03;98638.91;;;-2.10;97.96
65276;BME280;51875;49.994;14.052;2023-03-03T00:07:20;98642.22;;;-2.16;100.00
65276;BME280;51875;49.994;14.052;2023-03-03T00:08:37;98641.25;;;-2.20;99.32
65276;BME280;51875;49.994;14.052;2023-03-03T00:09:53;98641.09;;;-2.26;100.00
65276;BME280;51875;49.994;14.052;2023-03-03T00:11:09;98644.28;;;-2.35;99.38
65276;BME280;51875;49.994;14.052;2023-03-03T00:12:28;98649.88;;;-2.50;99.98
65276;BME280;51875;49.994;14.052;2023-03-03T00:13:55;98646.69;;;-2.41;99.61
65276;BME280;51875;49.994;14.052;2023-03-03T00:15:20;98650.09;;;-2.41;100.00
65276;BME280;51875;49.994;14.052;2023-03-03T00:16:37;98642.25;;;-2.47;100.00
65276;BME280;51875;49.994;14.052;2023-03-03T00:17:53;98649.41;;;-2.35;100.00
65276;BME280;51875;49.994;14.052;2023-03-03T00:19:14;98643.16;;;-2.45;100.00
65276;BME280;51875;49.994;14.052;2023-03-03T00:20:35;98641.78;;;-2.32;100.00
65276;BME280;51875;49.994;14.052;2023-03-03T00:21:52;98641.06;;;-2.28;100.00
65276;BME280;51875;49.994;14.052;2023-03-03T00:23:34;98640.69;;;-2.09;98.17
65276;BME280;51875;49.994;14.052;2023-03-03T00:24:51;98643.00;;;-2.19;97.56
65276;BME280;51875;49.994;14.052;2023-03-03T00:26:20;98643.94;;;-2.15;96.60
65276;BME280;51875;49.994;14.052;2023-03-03T00:27:35;98645.63;;;-2.16;95.35
65276;BME280;51875;49.994;14.052;2023-03-03T00:28:54;98635.22;;;-2.22;96.41
65276;BME280;51875;49.994;14.052;2023-03-03T00:30:22;98642.09;;;-2.21;96.07
65276;BME280;51875;49.994;14.052;2023-03-03T00:31:39;98634.56;;;-2.47;97.37
65276;BME280;51875;49.994;14.052;2023-03-03T00:32:55;98634.56;;;-2.77;100.00
65276;BME280;51875;49.994;14.052;2023-03-03T00:35:33;98635.09;;;-2.89;100.00
65276;BME280;51875;49.994;14.052;2023-03-03T00:36:56;98634.25;;;-2.88;100.00
65276;BME280;51875;49.994;14.052;2023-03-03T00:38:17;98636.63;;;-2.94;100.00
65276;BME280;51875;49.994;14.052;2023-03-03T00:39:37;98641.13;;;-3.16;100.00
65276;BME280;51875;49.994;14.052;2023-03-03T00:40:53;98639.88;;;-3.29;100.00
65276;BME280;51875;49.994;14.052;2023-03-03T00:42:13;98635.59;;;-3.30;100.00
65276;BME280;51875;49.994;14.052;2023-03-03T00:43:34;98646.50;;;-3.36;100.00
65276;BME280;51875;49.994;14.052;2023-03-03T00:44:57;98645.50;;;-3.41;100.00
65276;BME280;51875;49.994;14.052;2023-03-03T00:46:21;98640.59;;;-3.35;100.00
65276;BME280;51875;49.994;14.052;2023-03-03T00:47:37;98640.47;;;-3.38;100.00
65276;BME280;51875;49.994;14.052;2023-03-03T00:48:56;98642.19;;;-3.38;100.00
65276;BME280;51875;49.994;14.052;2023-03-03T00:50:32;98645.81;;;-3.30;100.00
65276;BME280;51875;49.994;14.052;2023-03-03T00:51:49;98641.28;;;-3.12;100.00
65276;BME280;51875;49.994;14.052;2023-03-03T00:53:13;98643.47;;;-2.95;100.00
65276;BME280;51875;49.994;14.052;2023-03-03T00:54:31;98644.25;;;-2.98;100.00
65276;BME280;51875;49.994;14.052;2023-03-03T00:55:51;98644.66;;;-2.84;100.00
65276;BME280;51875;49.994;14.052;2023-03-03T00:57:06;98642.56;;;-2.66;100.00
65276;BME280;51875;49.994;14.052;2023-03-03T00:58:25;98639.84;;;-2.41;100.00
65276;BME280;51875;49.994;14.052;2023-03-03T00:59:41;98638.94;;;-2.43;100.00
65276;BME280;51875;49.994;14.052;2023-03-03T01:00:57;98629.97;;;-2.27;100.00
65276;BME280;51875;49.994;14.052;2023-03-03T01:02:13;98630.88;;;-2.24;100.00
65276;BME280;51875;49.994;14.052;2023-03-03T01:03:28;98641.88;;;-2.29;100.00
65276;BME280;51875;49.994;14.052;2023-03-03T01:04:48;98635.59;;;-2.40;100.00
65276;BME280;51875;49.994;14.052;2023-03-03T01:06:05;98628.94;;;-2.33;100.00
65276;BME280;51875;49.994;14.052;2023-03-03T01:07:21;98627.44;;;-2.25;100.00
65276;BME280;51875;49.994;14.052;2023-03-03T01:08:37;98624.13;;;-2.21;100.00
65276;BME280;51875;49.994;14.052;2023-03-03T01:09:53;98626.44;;;-2.30;100.00
65276;BME280;51875;49.994;14.052;2023-03-03T01:11:13;98630.47;;;-2.40;100.00
65276;BME280;51875;49.994;14.052;2023-03-03T01:12:30;98630.41;;;-2.42;100.00
65276;BME280;51875;49.994;14.052;2023-03-03T01:13:47;98628.00;;;-2.67;100.00
65276;BME280;51875;49.994;14.052;2023-03-03T01:15:06;98631.16;;;-2.78;100.00
65276;BME280;51875;49.994;14.052;2023-03-03T01:16:22;98625.09;;;-2.80;100.00
65276;BME280;51875;49.994;14.052;2023-03-03T01:17:38;98627.91;;;-2.72;100.00
65276;BME280;51875;49.994;14.052;2023-03-03T01:18:54;98628.53;;;-2.79;100.00
65276;BME280;51875;49.994;14.052;2023-03-03T01:20:12;98623.81;;;-2.94;100.00
65276;BME280;51875;49.994;14.052;2023-03-03T01:21:28;98630.69;;;-2.93;100.00
65276;BME280;51875;49.994;14.052;2023-03-03T01:22:43;98629.19;;;-3.16;100.00
65276;BME280;51875;49.994;14.052;2023-03-03T01:23:59;98627.00;;;-3.32;100.00
65276;BME280;51875;49.994;14.052;2023-03-03T01:25:15;98626.28;;;-3.28;100.00
65276;BME280;51875;49.994;14.052;2023-03-03T01:26:31;98626.72;;;-3.42;100.00
65276;BME280;51875;49.994;14.052;2023-03-03T01:27:46;98624.28;;;-3.37;100.00
65276;BME280;51875;49.994;14.052;2023-03-03T01:29:02;98626.72;;;-3.42;100.00
65276;BME280;51875;49.994;14.052;2023-03-03T01:30:17;98621.84;;;-3.61;100.00
65276;BME280;51875;49.994;14.052;2023-03-03T01:31:33;98615.22;;;-3.55;100.00
65276;BME280;51875;49.994;14.052;2023-03-03T01:32:49;98615.22;;;-3.55;100.00
65276;BME280;51875;49.994;14.052;2023-03-03T01:34:05;98611.81;;;-3.55;100.00
65276;BME280;51875;49.994;14.052;2023-03-03T01:35:21;98614.69;;;-3.72;100.00
65276;BME280;51875;49.994;14.052;2023-03-03T01:36:37;98608.72;;;-3.72;100.00
65276;BME280;51875;49.994;14.052;2023-03-03T01:37:53;98612.38;;;-3.64;100.00
65276;BME280;51875;49.994;14.052;2023-03-03T01:39:09;98612.94;;;-3.73;100.00
65276;BME280;51875;49.994;14.052;2023-03-03T01:40:27;98608.13;;;-3.91;100.00
65276;BME280;51875;49.994;14.052;2023-03-03T01:41:43;98609.13;;;-3.58;100.00
65276;BME280;51875;49.994;14.052;2023-03-03T01:42:59;98607.66;;;-3.22;100.00
65276;BME280;51875;49.994;14.052;2023-03-03T01:44:15;98606.72;;;-3.24;100.00
65276;BME280;51875;49.994;14.052;2023-03-03T01:47:23;98614.19;;;-3.32;100.00
65276;BME280;51875;49.994;14.052;2023-03-03T01:48:43;98619.66;;;-3.49;100.00
65276;BME280;51875;49.994;14.052;2023-03-03T01:50:05;98614.09;;;-3.35;100.00
65276;BME280;51875;49.994;14.052;2023-03-03T01:51:31;98616.28;;;-3.20;100.00
65276;BME280;51875;49.994;14.052;2023-03-03T01:52:48;98618.31;;;-3.08;100.00
65276;BME280;51875;49.994;14.052;2023-03-03T01:54:08;98611.22;;;-3.17;100.00
65276;BME280;51875;49.994;14.052;2023-03-03T01:55:33;98617.63;;;-3.03;100.00
65276;BME280;51875;49.994;14.052;2023-03-03T01:56:50;98611.00;;;-2.94;100.00
65276;BME280;51875;49.994;14.052;2023-03-03T01:58:15;98608.28;;;-3.01;100.00
65276;BME280;51875;49.994;14.052;2023-03-03T01:59:35;98610.19;;;-3.24;100.00
65276;BME280;51875;49.994;14.052;2023-03-03T02:00:59;98611.31;;;-3.14;100.00
65276;BME280;51875;49.994;14.052;2023-03-03T02:02:17;98614.75;;;-3.14;100.00
65276;BME280;51875;49.994;14.052;2023-03-03T02:03:34;98616.13;;;-2.94;100.00
65276;BME280;51875;49.994;14.052;2023-03-03T02:04:49;98618.13;;;-2.86;100.00
65276;BME280;51875;49.994;14.052;2023-03-03T02:06:09;98616.59;;;-2.79;100.00
65276;BME280;51875;49.994;14.052;2023-03-03T02:07:27;98617.50;;;-2.77;100.00
65276;BME280;51875;49.994;14.052;2023-03-03T02:08:47;98613.84;;;-2.85;100.00
65276;BME280;51875;49.994;14.052;2023-03-03T02:10:10;98626.03;;;-2.78;100.00
65276;BME280;51875;49.994;14.052;2023-03-03T02:11:29;98621.06;;;-2.72;100.00
65276;BME280;51875;49.994;14.052;2023-03-03T02:12:56;98620.91;;;-2.78;100.00
65276;BME280;51875;49.994;14.052;2023-03-03T02:14:13;98626.22;;;-3.01;100.00
65276;BME280;51875;49.994;14.052;2023-03-03T02:15:31;98620.72;;;-3.13;100.00
65276;BME280;51875;49.994;14.052;2023-03-03T02:16:48;98623.28;;;-3.13;100.00
65276;BME280;51875;49.994;14.052;2023-03-03T02:18:21;98618.47;;;-3.33;100.00
65276;BME280;51875;49.994;14.052;2023-03-03T02:21:13;98620.13;;;-3.33;100.00
65276;BME280;51875;49.994;14.052;2023-03-03T02:22:36;98619.06;;;-3.40;100.00
65276;BME280;51875;49.994;14.052;2023-03-03T02:25:28;98617.03;;;-3.23;100.00
65276;BME280;51875;49.994;14.052;2023-03-03T02:26:46;98613.22;;;-3.36;100.00
65276;BME280;51875;49.994;14.052;2023-03-03T02:28:02;98616.13;;;-3.52;100.00
65276;BME280;51875;49.994;14.052;2023-03-03T02:29:17;98619.34;;;-3.60;100.00
65276;BME280;51875;49.994;14.052;2023-03-03T02:30:37;98616.16;;;-3.78;100.00
65276;BME280;51875;49.994;14.052;2023-03-03T02:31:53;98613.50;;;-3.83;100.00
65276;BME280;51875;49.994;14.052;2023-03-03T02:33:08;98615.66;;;-3.95;100.00
65276;BME280;51875;49.994;14.052;2023-03-03T02:34:24;98614.31;;;-3.84;100.00
65276;BME280;51875;49.994;14.052;2023-03-03T02:35:41;98616.38;;;-3.72;100.00
65276;BME280;51875;49.994;14.052;2023-03-03T02:36:56;98609.97;;;-3.59;100.00
65276;BME280;51875;49.994;14.052;2023-03-03T02:39:39;98600.59;;;-3.59;100.00
65276;BME280;51875;49.994;14.052;2023-03-03T02:42:31;98596.50;;;-3.81;100.00
65276;BME280;51875;49.994;14.052;2023-03-03T02:44:06;98600.50;;;-3.62;100.00
65276;BME280;51875;49.994;14.052;2023-03-03T02:45:22;98602.03;;;-3.94;100.00
65276;BME280;51875;49.994;14.052;2023-03-03T02:46:41;98607.88;;;-4.24;100.00
65276;BME280;51875;49.994;14.052;2023-03-03T02:47:57;98612.94;;;-4.26;100.00
65276;BME280;51875;49.994;14.052;2023-03-03T02:49:16;98612.34;;;-4.19;100.00
65276;BME280;51875;49.994;14.052;2023-03-03T02:50:32;98614.81;;;-4.20;100.00
65276;BME280;51875;49.994;14.052;2023-03-03T02:51:48;98613.34;;;-4.14;100.00
65276;BME280;51875;49.994;14.052;2023-03-03T02:53:04;98607.41;;;-3.87;100.00
65276;BME280;51875;49.994;14.052;2023-03-03T02:54:22;98605.56;;;-3.91;100.00
65276;BME280;51875;49.994;14.052;2023-03-03T02:55:37;98611.53;;;-3.90;100.00
65276;BME280;51875;49.994;14.052;2023-03-03T02:56:53;98602.56;;;-3.77;100.00
65276;BME280;51875;49.994;14.052;2023-03-03T02:58:09;98600.28;;;-3.70;100.00
65276;BME280;51875;49.994;14.052;2023-03-03T02:59:24;98606.50;;;-3.89;100.00
65276;BME280;51875;49.994;14.052;2023-03-03T03:00:40;98607.31;;;-3.90;100.00
65276;BME280;51875;49.994;14.052;2023-03-03T03:01:56;98603.28;;;-3.81;100.00
65276;BME280;51875;49.994;14.052;2023-03-03T03:03:12;98604.59;;;-3.94;100.00
65276;BME280;51875;49.994;14.052;2023-03-03T03:04:28;98612.03;;;-4.02;100.00
65276;BME280;51875;49.994;14.052;2023-03-03T03:05:44;98617.91;;;-3.77;100.00
65276;BME280;51875;49.994;14.052;2023-03-03T03:07:00;98614.16;;;-3.89;100.00
65276;BME280;51875;49.994;14.052;2023-03-03T03:08:15;98619.63;;;-3.78;100.00
65276;BME280;51875;49.994;14.052;2023-03-03T03:09:31;98623.81;;;-3.52;100.00
65276;BME280;51875;49.994;14.052;2023-03-03T03:10:47;98614.69;;;-3.44;100.00
65276;BME280;51875;49.994;14.052;2023-03-03T03:12:03;98618.53;;;-3.30;100.00
65276;BME280;51875;49.994;14.052;2023-03-03T03:13:19;98625.94;;;-3.39;100.00
65276;BME280;51875;49.994;14.052;2023-03-03T03:14:35;98622.75;;;-3.32;100.00
65276;BME280;51875;49.994;14.052;2023-03-03T03:15:50;98620.63;;;-3.45;100.00
65276;BME280;51875;49.994;14.052;2023-03-03T03:17:06;98626.31;;;-3.27;100.00
65276;BME280;51875;49.994;14.052;2023-03-03T03:18:22;98622.91;;;-3.27;100.00
65276;BME280;51875;49.994;14.052;2023-03-03T03:19:37;98617.88;;;-3.22;100.00
65276;BME280;51875;49.994;14.052;2023-03-03T03:20:53;98620.91;;;-3.36;100.00
65276;BME280;51875;49.994;14.052;2023-03-03T03:22:08;98619.38;;;-3.31;100.00
65276;BME280;51875;49.994;14.052;2023-03-03T03:23:24;98618.22;;;-3.41;100.00
65276;BME280;51875;49.994;14.052;2023-03-03T03:24:39;98616.50;;;-3.40;100.00
65276;BME280;51875;49.994;14.052;2023-03-03T03:25:55;98623.00;;;-3.22;100.00
65276;BME280;51875;49.994;14.052;2023-03-03T03:27:11;98624.63;;;-3.26;100.00
65276;BME280;51875;49.994;14.052;2023-03-03T03:28:26;98620.88;;;-3.37;100.00
65276;BME280;51875;49.994;14.052;2023-03-03T03:29:42;98622.53;;;-3.38;100.00
65276;BME280;51875;49.994;14.052;2023-03-03T03:30:57;98615.00;;;-3.33;100.00
65276;BME280;51875;49.994;14.052;2023-03-03T03:32:13;98624.25;;;-3.38;100.00
65276;BME280;51875;49.994;14.052;2023-03-03T03:33:29;98619.56;;;-3.52;100.00
65276;BME280;51875;49.994;14.052;2023-03-03T03:34:45;98620.25;;;-3.58;100.00
65276;BME280;51875;49.994;14.052;2023-03-03T03:36:01;98618.44;;;-3.62;100.00
65276;BME280;51875;49.994;14.052;2023-03-03T03:37:19;98614.91;;;-3.64;100.00
65276;BME280;51875;49.994;14.052;2023-03-03T03:38:35;98618.72;;;-3.80;100.00
65276;BME280;51875;49.994;14.052;2023-03-03T03:39:53;98614.22;;;-3.60;100.00
65276;BME280;51875;49.994;14.052;2023-03-03T03:41:10;98616.72;;;-3.89;100.00
65276;BME280;51875;49.994;14.052;2023-03-03T03:42:26;98616.75;;;-3.87;100.00
65276;BME280;51875;49.994;14.052;2023-03-03T03:43:42;98616.47;;;-3.97;100.00
65276;BME280;51875;49.994;14.052;2023-03-03T03:44:57;98612.88;;;-4.02;100.00
65276;BME280;51875;49.994;14.052;2023-03-03T03:46:13;98614.75;;;-3.98;100.00
65276;BME280;51875;49.994;14.052;2023-03-03T03:47:29;98615.00;;;-4.16;100.00
65276;BME280;51875;49.994;14.052;2023-03-03T03:48:45;98621.22;;;-4.07;100.00
65276;BME280;51875;49.994;14.052;2023-03-03T03:50:00;98622.41;;;-4.23;100.00
65276;BME280;51875;49.994;14.052;2023-03-03T03:51:16;98612.50;;;-4.38;100.00
65276;BME280;51875;49.994;14.052;2023-03-03T03:52:32;98611.59;;;-4.41;100.00
65276;BME280;51875;49.994;14.052;2023-03-03T03:53:47;98615.50;;;-4.26;100.00
65276;BME280;51875;49.994;14.052;2023-03-03T03:55:03;98608.53;;;-4.30;100.00
65276;BME280;51875;49.994;14.052;2023-03-03T03:56:19;98611.34;;;-4.22;100.00
65276;BME280;51875;49.994;14.052;2023-03-03T03:57:35;98607.84;;;-4.50;100.00
65276;BME280;51875;49.994;14.052;2023-03-03T03:58:51;98608.00;;;-4.46;100.00
65276;BME280;51875;49.994;14.052;2023-03-03T04:00:08;98607.22;;;-4.43;100.00
65276;BME280;51875;49.994;14.052;2023-03-03T04:01:24;98608.47;;;-4.32;100.00
65276;BME280;51875;49.994;14.052;2023-03-03T04:02:40;98609.47;;;-4.02;100.00
65276;BME280;51875;49.994;14.052;2023-03-03T04:03:56;98595.63;;;-3.81;100.00
65276;BME280;51875;49.994;14.052;2023-03-03T04:05:12;98599.00;;;-4.08;100.00
65276;BME280;51875;49.994;14.052;2023-03-03T04:06:27;98599.31;;;-4.25;100.00
65276;BME280;51875;49.994;14.052;2023-03-03T04:07:43;98593.22;;;-4.04;100.00
65276;BME280;51875;49.994;14.052;2023-03-03T04:08:59;98600.31;;;-4.21;100.00
65276;BME280;51875;49.994;14.052;2023-03-03T04:10:14;98593.63;;;-4.18;100.00
65276;BME280;51875;49.994;14.052;2023-03-03T04:11:30;98595.59;;;-3.83;100.00
65276;BME280;51875;49.994;14.052;2023-03-03T04:12:46;98598.84;;;-3.87;100.00
65276;BME280;51875;49.994;14.052;2023-03-03T04:14:01;98591.44;;;-4.05;100.00
65276;BME280;51875;49.994;14.052;2023-03-03T04:15:17;98596.28;;;-4.15;100.00
65276;BME280;51875;49.994;14.052;2023-03-03T04:16:33;98598.81;;;-4.15;100.00
65276;BME280;51875;49.994;14.052;2023-03-03T04:17:48;98598.91;;;-4.12;100.00
65276;BME280;51875;49.994;14.052;2023-03-03T04:19:04;98598.00;;;-4.14;100.00
65276;BME280;51875;49.994;14.052;2023-03-03T04:20:20;98606.28;;;-4.21;100.00
65276;BME280;51875;49.994;14.052;2023-03-03T04:21:35;98607.06;;;-4.48;100.00
65276;BME280;51875;49.994;14.052;2023-03-03T04:22:51;98608.25;;;-4.64;100.00
65276;BME280;51875;49.994;14.052;2023-03-03T04:24:07;98607.16;;;-4.71;100.00
65276;BME280;51875;49.994;14.052;2023-03-03T04:25:22;98609.44;;;-4.78;100.00
65276;BME280;51875;49.994;14.052;2023-03-03T04:26:38;98606.81;;;-4.56;100.00
65276;BME280;51875;49.994;14.052;2023-03-03T04:27:54;98611.09;;;-4.30;100.00
65276;BME280;51875;49.994;14.052;2023-03-03T04:29:09;98608.94;;;-4.44;100.00
65276;BME280;51875;49.994;14.052;2023-03-03T04:30:25;98615.19;;;-4.09;100.00
65276;BME280;51875;49.994;14.052;2023-03-03T04:31:41;98616.09;;;-4.07;100.00
65276;BME280;51875;49.994;14.052;2023-03-03T04:32:56;98616.34;;;-4.00;100.00
65276;BME280;51875;49.994;14.052;2023-03-03T04:34:12;98624.56;;;-4.10;100.00
65276;BME280;51875;49.994;14.052;2023-03-03T04:35:28;98615.59;;;-3.97;100.00
65276;BME280;51875;49.994;14.052;2023-03-03T04:36:43;98620.09;;;-3.90;100.00
65276;BME280;51875;49.994;14.052;2023-03-03T04:37:59;98623.31;;;-3.95;100.00
65276;BME280;51875;49.994;14.052;2023-03-03T04:39:15;98622.84;;;-3.84;100.00
65276;BME280;51875;49.994;14.052;2023-03-03T04:40:30;98620.34;;;-3.82;100.00
65276;BME280;51875;49.994;14.052;2023-03-03T04:41:46;98627.56;;;-3.96;100.00
65276;BME280;51875;49.994;14.052;2023-03-03T04:43:02;98613.75;;;-4.01;100.00
65276;BME280;51875;49.994;14.052;2023-03-03T04:44:18;98620.69;;;-3.97;100.00
65276;BME280;51875;49.994;14.052;2023-03-03T04:45:34;98618.25;;;-3.94;100.00
65276;BME280;51875;49.994;14.052;2023-03-03T04:46:50;98621.19;;;-3.81;100.00
65276;BME280;51875;49.994;14.052;2023-03-03T04:48:05;98616.16;;;-3.78;100.00
65276;BME280;51875;49.994;14.052;2023-03-03T04:49:21;98618.50;;;-3.86;100.00
65276;BME280;51875;49.994;14.052;2023-03-03T04:50:37;98623.25;;;-3.97;100.00
65276;BME280;51875;49.994;14.052;2023-03-03T04:51:53;98629.84;;;-4.04;100.00
65276;BME280;51875;49.994;14.052;2023-03-03T04:53:09;98624.53;;;-4.36;100.00
65276;BME280;51875;49.994;14.052;2023-03-03T04:54:24;98627.94;;;-4.35;100.00
65276;BME280;51875;49.994;14.052;2023-03-03T04:55:40;98634.16;;;-4.53;100.00
65276;BME280;51875;49.994;14.052;2023-03-03T04:56:56;98624.69;;;-4.31;100.00
65276;BME280;51875;49.994;14.052;2023-03-03T04:58:12;98626.00;;;-4.43;100.00
65276;BME280;51875;49.994;14.052;2023-03-03T04:59:28;98626.16;;;-4.38;100.00
65276;BME280;51875;49.994;14.052;2023-03-03T05:00:46;98621.72;;;-4.44;100.00
65276;BME280;51875;49.994;14.052;2023-03-03T05:02:02;98627.84;;;-4.38;100.00
65276;BME280;51875;49.994;14.052;2023-03-03T05:03:19;98626.03;;;-4.41;100.00
65276;BME280;51875;49.994;14.052;2023-03-03T05:04:35;98630.50;;;-4.60;100.00
65276;BME280;51875;49.994;14.052;2023-03-03T05:05:50;98626.47;;;-4.29;100.00
65276;BME280;51875;49.994;14.052;2023-03-03T05:07:06;98625.13;;;-4.19;100.00
65276;BME280;51875;49.994;14.052;2023-03-03T05:08:22;98630.75;;;-4.28;100.00
65276;BME280;51875;49.994;14.052;2023-03-03T05:09:37;98627.88;;;-4.13;100.00
65276;BME280;51875;49.994;14.052;2023-03-03T05:10:53;98624.66;;;-4.07;100.00
65276;BME280;51875;49.994;14.052;2023-03-03T05:12:09;98623.81;;;-4.32;100.00
65276;BME280;51875;49.994;14.052;2023-03-03T05:13:25;98616.88;;;-4.10;100.00
65276;BME280;51875;49.994;14.052;2023-03-03T05:14:41;98618.72;;;-4.06;100.00
65276;BME280;51875;49.994;14.052;2023-03-03T05:15:57;98625.22;;;-4.40;100.00
65276;BME280;51875;49.994;14.052;2023-03-03T05:17:13;98627.50;;;-4.23;100.00
65276;BME280;51875;49.994;14.052;2023-03-03T05:18:28;98627.75;;;-4.42;100.00
65276;BME280;51875;49.994;14.052;2023-03-03T05:19:44;98629.28;;;-4.47;100.00
65276;BME280;51875;49.994;14.052;2023-03-03T05:21:00;98632.47;;;-4.28;100.00
65276;BME280;51875;49.994;14.052;2023-03-03T05:22:15;98629.69;;;-4.34;100.00
65276;BME280;51875;49.994;14.052;2023-03-03T05:23:31;98626.03;;;-4.17;100.00
65276;BME280;51875;49.994;14.052;2023-03-03T05:24:47;98634.13;;;-4.29;100.00
65276;BME280;51875;49.994;14.052;2023-03-03T05:26:03;98631.19;;;-4.15;100.00
65276;BME280;51875;49.994;14.052;2023-03-03T05:27:19;98631.50;;;-4.06;100.00
65276;BME280;51875;49.994;14.052;2023-03-03T05:28:35;98637.28;;;-4.12;100.00
65276;BME280;51875;49.994;14.052;2023-03-03T05:29:51;98637.00;;;-4.19;100.00
65276;BME280;51875;49.994;14.052;2023-03-03T05:31:06;98633.97;;;-4.33;100.00
65276;BME280;51875;49.994;14.052;2023-03-03T05:32:22;98639.81;;;-4.37;100.00
65276;BME280;51875;49.994;14.052;2023-03-03T05:33:37;98639.06;;;-4.59;100.00
65276;BME280;51875;49.994;14.052;2023-03-03T05:34:53;98639.25;;;-4.77;100.00
65276;BME280;51875;49.994;14.052;2023-03-03T05:36:08;98644.91;;;-4.86;100.00
65276;BME280;51875;49.994;14.052;2023-03-03T05:37:24;98646.59;;;-4.87;100.00
65276;BME280;51875;49.994;14.052;2023-03-03T05:38:40;98648.63;;;-5.01;100.00
65276;BME280;51875;49.994;14.052;2023-03-03T05:39:56;98653.16;;;-5.16;100.00
65276;BME280;51875;49.994;14.052;2023-03-03T05:41:11;98653.63;;;-5.27;100.00
65276;BME280;51875;49.994;14.052;2023-03-03T05:42:27;98650.34;;;-5.45;100.00
65276;BME280;51875;49.994;14.052;2023-03-03T05:43:42;98659.16;;;-5.37;100.00
65276;BME280;51875;49.994;14.052;2023-03-03T05:44:58;98653.38;;;-5.10;100.00
65276;BME280;51875;49.994;14.052;2023-03-03T05:46:14;98649.84;;;-4.91;100.00
65276;BME280;51875;49.994;14.052;2023-03-03T05:47:30;98654.56;;;-5.02;100.00
65276;BME280;51875;49.994;14.052;2023-03-03T05:48:45;98660.91;;;-4.90;100.00
65276;BME280;51875;49.994;14.052;2023-03-03T05:50:02;98666.81;;;-4.69;100.00
65276;BME280;51875;49.994;14.052;2023-03-03T05:51:18;98668.28;;;-4.51;100.00
65276;BME280;51875;49.994;14.052;2023-03-03T05:52:33;98671.13;;;-4.43;100.00
65276;BME280;51875;49.994;14.052;2023-03-03T05:53:49;98674.84;;;-4.59;100.00
65276;BME280;51875;49.994;14.052;2023-03-03T05:55:05;98681.75;;;-4.32;100.00
65276;BME280;51875;49.994;14.052;2023-03-03T05:56:20;98684.59;;;-4.23;100.00
65276;BME280;51875;49.994;14.052;2023-03-03T05:57:36;98684.50;;;-4.26;100.00
65276;BME280;51875;49.994;14.052;2023-03-03T05:58:52;98684.72;;;-4.44;100.00
65276;BME280;51875;49.994;14.052;2023-03-03T06:00:08;98677.44;;;-4.33;100.00
65276;BME280;51875;49.994;14.052;2023-03-03T06:01:24;98679.81;;;-4.14;100.00
65276;BME280;51875;49.994;14.052;2023-03-03T06:02:41;98688.72;;;-4.52;100.00
65276;BME280;51875;49.994;14.052;2023-03-03T06:03:57;98684.50;;;-4.26;100.00
65276;BME280;51875;49.994;14.052;2023-03-03T06:05:12;98681.38;;;-4.19;100.00
65276;BME280;51875;49.994;14.052;2023-03-03T06:06:28;98678.22;;;-4.36;100.00
65276;BME280;51875;49.994;14.052;2023-03-03T06:07:43;98679.66;;;-4.18;100.00
65276;BME280;51875;49.994;14.052;2023-03-03T06:08:59;98691.97;;;-4.32;100.00
65276;BME280;51875;49.994;14.052;2023-03-03T06:10:15;98697.88;;;-4.58;100.00
65276;BME280;51875;49.994;14.052;2023-03-03T06:11:30;98702.41;;;-4.73;100.00
65276;BME280;51875;49.994;14.052;2023-03-03T06:12:46;98695.22;;;-4.61;100.00
65276;BME280;51875;49.994;14.052;2023-03-03T06:14:02;98699.06;;;-4.48;100.00
65276;BME280;51875;49.994;14.052;2023-03-03T06:15:17;98695.91;;;-4.65;100.00
65276;BME280;51875;49.994;14.052;2023-03-03T06:16:33;98702.00;;;-4.61;100.00
65276;BME280;51875;49.994;14.052;2023-03-03T06:17:49;98697.94;;;-4.32;100.00
65276;BME280;51875;49.994;14.052;2023-03-03T06:19:05;98702.47;;;-4.24;100.00
65276;BME280;51875;49.994;14.052;2023-03-03T06:20:21;98701.03;;;-4.16;100.00
65276;BME280;51875;49.994;14.052;2023-03-03T06:21:36;98700.72;;;-4.01;100.00
65276;BME280;51875;49.994;14.052;2023-03-03T06:22:52;98706.13;;;-3.92;100.00
65276;BME280;51875;49.994;14.052;2023-03-03T06:24:08;98711.94;;;-3.98;100.00
65276;BME280;51875;49.994;14.052;2023-03-03T06:25:24;98713.59;;;-3.98;100.00
65276;BME280;51875;49.994;14.052;2023-03-03T06:26:39;98707.88;;;-3.91;100.00
65276;BME280;51875;49.994;14.052;2023-03-03T06:27:55;98718.25;;;-3.86;100.00
65276;BME280;51875;49.994;14.052;2023-03-03T06:29:11;98713.09;;;-3.88;100.00
65276;BME280;51875;49.994;14.052;2023-03-03T06:30:26;98721.78;;;-3.83;100.00
65276;BME280;51875;49.994;14.052;2023-03-03T06:31:42;98720.38;;;-3.74;100.00
65276;BME280;51875;49.994;14.052;2023-03-03T06:32:58;98720.38;;;-3.74;100.00
65276;BME280;51875;49.994;14.052;2023-03-03T06:34:14;98725.50;;;-3.74;100.00
65276;BME280;51875;49.994;14.052;2023-03-03T06:35:30;98725.50;;;-3.74;100.00
65276;BME280;51875;49.994;14.052;2023-03-03T06:36:45;98733.34;;;-3.94;100.00
65276;BME280;51875;49.994;14.052;2023-03-03T06:38:01;98731.69;;;-3.92;100.00
65276;BME280;51875;49.994;14.052;2023-03-03T06:39:17;98732.09;;;-3.81;100.00
65276;BME280;51875;49.994;14.052;2023-03-03T06:40:32;98727.22;;;-3.73;100.00
65276;BME280;51875;49.994;14.052;2023-03-03T06:41:48;98740.31;;;-3.90;100.00
65276;BME280;51875;49.994;14.052;2023-03-03T06:43:04;98745.44;;;-3.64;100.00
65276;BME280;51875;49.994;14.052;2023-03-03T06:44:20;98746.78;;;-3.75;100.00
65276;BME280;51875;49.994;14.052;2023-03-03T06:45:35;98745.09;;;-3.49;100.00
65276;BME280;51875;49.994;14.052;2023-03-03T06:46:51;98747.75;;;-3.46;100.00